WAT672 KLAX-YSSY
Flight info
| Callsign | WAT672 |
|---|---|
| Flight time | N/A |
| Altitude | 28000 |
| Route | SUMMR2 DINTY DCT 3227N12532W 3030N12957W/N0503F300 2814N13332W 2629N13610W 2327N14016W 2215N14148W 1917N14526W 1616N14846W/N0510F320 1439N15046W 1215N15358W 0854N15840W 0750N16001W 0423N16445W 0355N16526W 0121N16911W 0009N17058W/N0503F340 0238S17445W 0500S17750W 0551S17857W 0838S17732E 1033S17519E 1347S17127E 1736S16701E/N0495F360 2130S16306E 2137S16300E 2558S15904E 2744S15740E DCT IFFEY DCT RIKNI N774 MARLN |
| Aircraft | B77W/H-SDE1E2E3FGHIJ2J3J4J5M1RWXY/LB1D1 |
Departure
| Time | N/A |
|---|---|
| Airport | Los Angeles International Airport (KLAX) |
Arrival
| Time | 2026-05-07 13:10 |
|---|---|
| Airport | Sydney Kingsford Smith International Airport (YSSY) |
| Time | Latitude | Longitude | Altitude | Speed | Heading |
|---|---|---|---|---|---|
| 2026-05-07 10:01 | -18.01884 | 166.60866 | 31950 ft | 457 kts | 225° |
| 2026-05-07 10:02 | -18.04241 | 166.58563 | 31949 ft | 456 kts | 225° |
| 2026-05-07 10:02 | -18.08887 | 166.54019 | 31944 ft | 457 kts | 225° |
| 2026-05-07 10:03 | -18.13530 | 166.49474 | 31948 ft | 457 kts | 225° |
| 2026-05-07 10:03 | -18.18181 | 166.44917 | 31948 ft | 457 kts | 225° |
| 2026-05-07 10:04 | -18.22830 | 166.40359 | 31949 ft | 456 kts | 225° |
| 2026-05-07 10:04 | -18.27481 | 166.35796 | 31955 ft | 456 kts | 225° |
| 2026-05-07 10:05 | -18.32126 | 166.31233 | 31970 ft | 457 kts | 225° |
| 2026-05-07 10:05 | -18.36775 | 166.26665 | 31968 ft | 457 kts | 225° |
| 2026-05-07 10:06 | -18.41425 | 166.22092 | 31975 ft | 457 kts | 225° |
| 2026-05-07 10:06 | -18.46041 | 166.17548 | 31977 ft | 457 kts | 225° |
| 2026-05-07 10:07 | -18.50701 | 166.12959 | 31979 ft | 455 kts | 226° |
| 2026-05-07 10:07 | -18.55331 | 166.08394 | 31978 ft | 457 kts | 226° |
| 2026-05-07 10:08 | -18.59956 | 166.03832 | 31977 ft | 455 kts | 226° |
| 2026-05-07 10:08 | -18.64604 | 165.99242 | 31979 ft | 457 kts | 226° |
| 2026-05-07 10:09 | -18.69235 | 165.94667 | 31978 ft | 456 kts | 226° |
| 2026-05-07 10:09 | -18.73858 | 165.90096 | 31979 ft | 455 kts | 226° |
| 2026-05-07 10:10 | -18.78485 | 165.85518 | 31977 ft | 456 kts | 226° |
| 2026-05-07 10:10 | -18.83113 | 165.80934 | 31980 ft | 455 kts | 226° |
| 2026-05-07 10:11 | -18.87743 | 165.76344 | 31977 ft | 455 kts | 226° |
| 2026-05-07 10:11 | -18.92327 | 165.71797 | 31975 ft | 455 kts | 226° |
| 2026-05-07 10:12 | -18.96948 | 165.67209 | 31975 ft | 456 kts | 226° |
| 2026-05-07 10:12 | -19.01585 | 165.62602 | 31977 ft | 455 kts | 226° |
| 2026-05-07 10:13 | -19.06189 | 165.58025 | 31974 ft | 456 kts | 226° |
| 2026-05-07 10:13 | -19.10818 | 165.53418 | 31974 ft | 455 kts | 226° |
| 2026-05-07 10:14 | -19.15440 | 165.48814 | 31979 ft | 454 kts | 226° |
| 2026-05-07 10:14 | -19.20039 | 165.44231 | 31974 ft | 455 kts | 226° |
| 2026-05-07 10:15 | -19.24627 | 165.39655 | 31972 ft | 454 kts | 226° |
| 2026-05-07 10:15 | -19.29227 | 165.35062 | 31970 ft | 454 kts | 226° |
| 2026-05-07 10:16 | -19.33830 | 165.30463 | 31985 ft | 454 kts | 226° |
| 2026-05-07 10:16 | -19.38426 | 165.25867 | 31985 ft | 453 kts | 226° |
| 2026-05-07 10:17 | -19.42991 | 165.21297 | 31990 ft | 454 kts | 226° |
| 2026-05-07 10:17 | -19.47603 | 165.16678 | 31992 ft | 454 kts | 226° |
| 2026-05-07 10:18 | -19.52179 | 165.12091 | 31989 ft | 455 kts | 226° |
| 2026-05-07 10:18 | -19.56772 | 165.07483 | 31993 ft | 455 kts | 226° |
| 2026-05-07 10:19 | -19.61371 | 165.02866 | 31991 ft | 454 kts | 227° |
| 2026-05-07 10:19 | -19.65961 | 164.98253 | 31999 ft | 455 kts | 227° |
| 2026-05-07 10:20 | -19.70563 | 164.93623 | 32001 ft | 454 kts | 227° |
| 2026-05-07 10:20 | -19.75150 | 164.89008 | 31999 ft | 454 kts | 227° |
| 2026-05-07 10:21 | -19.79703 | 164.84421 | 31997 ft | 453 kts | 227° |
| 2026-05-07 10:21 | -19.84278 | 164.79807 | 31998 ft | 454 kts | 227° |
| 2026-05-07 10:22 | -19.88882 | 164.75162 | 31995 ft | 453 kts | 227° |
| 2026-05-07 10:22 | -19.93433 | 164.70564 | 31988 ft | 454 kts | 227° |
| 2026-05-07 10:23 | -19.98029 | 164.65920 | 31982 ft | 453 kts | 227° |
| 2026-05-07 10:23 | -20.02575 | 164.61320 | 31983 ft | 454 kts | 227° |
| 2026-05-07 10:24 | -20.07169 | 164.56670 | 31981 ft | 455 kts | 227° |
| 2026-05-07 10:24 | -20.11724 | 164.52054 | 31983 ft | 453 kts | 227° |
| 2026-05-07 10:25 | -20.16320 | 164.47392 | 31984 ft | 454 kts | 227° |
| 2026-05-07 10:25 | -20.20889 | 164.42754 | 31982 ft | 453 kts | 227° |
| 2026-05-07 10:26 | -20.25428 | 164.38142 | 31983 ft | 452 kts | 227° |
| 2026-05-07 10:26 | -20.29973 | 164.33521 | 31998 ft | 453 kts | 228° |
| 2026-05-07 10:27 | -20.34525 | 164.28888 | 32005 ft | 450 kts | 228° |
| 2026-05-07 10:27 | -20.39081 | 164.24248 | 32008 ft | 452 kts | 228° |
| 2026-05-07 10:28 | -20.43601 | 164.19640 | 32010 ft | 452 kts | 228° |
| 2026-05-07 10:28 | -20.48120 | 164.15028 | 32009 ft | 452 kts | 228° |
| 2026-05-07 10:29 | -20.52666 | 164.10387 | 32003 ft | 451 kts | 228° |
| 2026-05-07 10:29 | -20.57208 | 164.05745 | 31995 ft | 450 kts | 228° |
| 2026-05-07 10:30 | -20.64012 | 163.98782 | 31989 ft | 452 kts | 228° |
| 2026-05-07 10:30 | -20.68520 | 163.94165 | 31988 ft | 450 kts | 228° |
| 2026-05-07 10:31 | -20.73063 | 163.89508 | 31992 ft | 451 kts | 228° |
| 2026-05-07 10:31 | -20.77582 | 163.84871 | 31989 ft | 451 kts | 228° |
| 2026-05-07 10:32 | -20.82109 | 163.80222 | 31987 ft | 452 kts | 228° |
| 2026-05-07 10:32 | -20.86629 | 163.75575 | 31986 ft | 452 kts | 228° |
| 2026-05-07 10:33 | -20.91139 | 163.70935 | 31983 ft | 450 kts | 228° |
| 2026-05-07 10:33 | -20.95635 | 163.66307 | 31982 ft | 448 kts | 228° |
| 2026-05-07 10:34 | -21.00140 | 163.61664 | 31981 ft | 448 kts | 228° |
| 2026-05-07 10:34 | -21.04646 | 163.57016 | 31980 ft | 448 kts | 229° |
| 2026-05-07 10:35 | -21.09127 | 163.52390 | 31979 ft | 450 kts | 229° |
| 2026-05-07 10:35 | -21.13641 | 163.47725 | 31980 ft | 450 kts | 229° |
| 2026-05-07 10:36 | -21.18151 | 163.43060 | 31979 ft | 450 kts | 229° |
| 2026-05-07 10:36 | -21.22632 | 163.38422 | 31978 ft | 449 kts | 229° |
| 2026-05-07 10:37 | -21.27137 | 163.33754 | 31990 ft | 449 kts | 229° |
| 2026-05-07 10:37 | -21.31623 | 163.29102 | 31990 ft | 448 kts | 229° |
| 2026-05-07 10:38 | -21.36106 | 163.24448 | 31993 ft | 449 kts | 229° |
| 2026-05-07 10:38 | -21.40607 | 163.19772 | 31989 ft | 448 kts | 229° |
| 2026-05-07 10:39 | -21.45069 | 163.15132 | 31989 ft | 449 kts | 229° |
| 2026-05-07 10:39 | -21.49549 | 163.10471 | 31988 ft | 447 kts | 229° |
| 2026-05-07 10:40 | -21.51849 | 163.08200 | 32009 ft | 459 kts | 224° |
| 2026-05-07 10:40 | -21.54377 | 163.06061 | 32375 ft | 464 kts | 223° |
| 2026-05-07 10:40 | -21.56899 | 163.03949 | 33231 ft | 458 kts | 223° |
| 2026-05-07 10:40 | -21.59401 | 163.01846 | 34285 ft | 448 kts | 224° |
| 2026-05-07 10:41 | -21.61807 | 162.99811 | 35111 ft | 443 kts | 224° |
| 2026-05-07 10:41 | -21.64226 | 162.97742 | 35703 ft | 441 kts | 225° |
| 2026-05-07 10:41 | -21.66611 | 162.95688 | 35999 ft | 444 kts | 225° |
| 2026-05-07 10:41 | -21.69043 | 162.93588 | 36000 ft | 445 kts | 224° |
| 2026-05-07 10:42 | -21.73848 | 162.89432 | 36001 ft | 442 kts | 224° |
| 2026-05-07 10:42 | -21.78643 | 162.85275 | 36001 ft | 444 kts | 225° |
| 2026-05-07 10:43 | -21.83440 | 162.81111 | 36000 ft | 442 kts | 225° |
| 2026-05-07 10:43 | -21.88221 | 162.76955 | 36000 ft | 443 kts | 225° |
| 2026-05-07 10:44 | -21.93000 | 162.72797 | 35999 ft | 442 kts | 225° |
| 2026-05-07 10:44 | -21.97805 | 162.68611 | 36001 ft | 442 kts | 225° |
| 2026-05-07 10:45 | -22.02598 | 162.64432 | 36000 ft | 443 kts | 225° |
| 2026-05-07 10:45 | -22.07376 | 162.60263 | 36001 ft | 442 kts | 225° |
| 2026-05-07 10:46 | -22.12159 | 162.56085 | 35999 ft | 442 kts | 225° |
| 2026-05-07 10:46 | -22.16945 | 162.51901 | 36002 ft | 443 kts | 225° |
| 2026-05-07 10:47 | -22.21724 | 162.47720 | 35999 ft | 442 kts | 225° |
| 2026-05-07 10:47 | -22.26501 | 162.43536 | 35996 ft | 442 kts | 225° |
| 2026-05-07 10:48 | -22.31254 | 162.39369 | 35997 ft | 441 kts | 225° |
| 2026-05-07 10:48 | -22.36032 | 162.35176 | 35998 ft | 442 kts | 225° |
| 2026-05-07 10:49 | -22.40775 | 162.31012 | 36013 ft | 441 kts | 225° |
| 2026-05-07 10:49 | -22.45540 | 162.26823 | 36016 ft | 440 kts | 226° |
| 2026-05-07 10:50 | -22.50298 | 162.22636 | 36012 ft | 441 kts | 225° |
| 2026-05-07 10:50 | -22.55039 | 162.18462 | 36011 ft | 440 kts | 226° |
| 2026-05-07 10:51 | -22.59803 | 162.14262 | 36009 ft | 440 kts | 226° |
| 2026-05-07 10:51 | -22.64525 | 162.10097 | 36009 ft | 441 kts | 226° |
| 2026-05-07 10:52 | -22.69286 | 162.05893 | 36009 ft | 439 kts | 226° |
| 2026-05-07 10:52 | -22.74007 | 162.01721 | 36007 ft | 439 kts | 226° |
| 2026-05-07 10:53 | -22.78750 | 161.97523 | 36009 ft | 441 kts | 226° |
| 2026-05-07 10:53 | -22.83500 | 161.93318 | 36008 ft | 439 kts | 226° |
| 2026-05-07 10:54 | -22.88201 | 161.89151 | 36007 ft | 440 kts | 226° |
| 2026-05-07 10:54 | -22.92934 | 161.84953 | 36005 ft | 438 kts | 226° |
| 2026-05-07 10:55 | -22.97663 | 161.80754 | 36004 ft | 438 kts | 226° |
| 2026-05-07 10:55 | -23.02357 | 161.76582 | 36007 ft | 439 kts | 226° |
| 2026-05-07 10:56 | -23.07089 | 161.72372 | 36006 ft | 438 kts | 226° |
| 2026-05-07 10:56 | -23.11806 | 161.68172 | 36002 ft | 439 kts | 226° |
| 2026-05-07 10:57 | -23.16510 | 161.63979 | 36002 ft | 438 kts | 226° |
| 2026-05-07 10:57 | -23.21201 | 161.59795 | 36001 ft | 437 kts | 226° |
| 2026-05-07 10:58 | -23.25912 | 161.55588 | 36003 ft | 437 kts | 227° |
| 2026-05-07 10:58 | -23.30595 | 161.51402 | 35999 ft | 438 kts | 227° |
| 2026-05-07 10:59 | -23.35309 | 161.47185 | 35998 ft | 438 kts | 227° |
| 2026-05-07 10:59 | -23.39995 | 161.42987 | 35999 ft | 439 kts | 226° |
| 2026-05-07 11:00 | -23.44715 | 161.38759 | 35995 ft | 436 kts | 227° |
| 2026-05-07 11:00 | -23.49395 | 161.34558 | 35997 ft | 439 kts | 227° |
| 2026-05-07 11:01 | -23.54098 | 161.30335 | 36017 ft | 438 kts | 227° |
| 2026-05-07 11:01 | -23.58774 | 161.26132 | 36015 ft | 436 kts | 227° |
| 2026-05-07 11:02 | -23.63451 | 161.21922 | 36013 ft | 437 kts | 227° |
| 2026-05-07 11:02 | -23.68155 | 161.17686 | 36013 ft | 437 kts | 227° |
| 2026-05-07 11:03 | -23.72839 | 161.13463 | 36012 ft | 437 kts | 227° |
| 2026-05-07 11:03 | -23.77496 | 161.09262 | 36011 ft | 438 kts | 227° |
| 2026-05-07 11:04 | -23.82213 | 161.05002 | 36011 ft | 436 kts | 227° |
| 2026-05-07 11:04 | -23.86871 | 161.00789 | 36008 ft | 436 kts | 228° |
| 2026-05-07 11:05 | -23.91558 | 160.96547 | 36020 ft | 438 kts | 228° |
| 2026-05-07 11:05 | -23.96224 | 160.92322 | 36028 ft | 437 kts | 228° |
| 2026-05-07 11:06 | -24.00914 | 160.88068 | 36028 ft | 438 kts | 228° |
| 2026-05-07 11:06 | -24.05572 | 160.83843 | 36028 ft | 435 kts | 228° |
| 2026-05-07 11:07 | -24.10256 | 160.79585 | 36025 ft | 435 kts | 228° |
| 2026-05-07 11:07 | -24.14887 | 160.75375 | 36019 ft | 434 kts | 228° |
| 2026-05-07 11:08 | -24.19553 | 160.71126 | 36022 ft | 435 kts | 229° |
| 2026-05-07 11:08 | -24.24190 | 160.66901 | 36022 ft | 436 kts | 228° |
| 2026-05-07 11:09 | -24.28864 | 160.62637 | 36021 ft | 435 kts | 229° |
| 2026-05-07 11:09 | -24.33502 | 160.58403 | 36018 ft | 433 kts | 229° |
| 2026-05-07 11:10 | -24.38133 | 160.54172 | 36021 ft | 434 kts | 229° |
| 2026-05-07 11:10 | -24.42762 | 160.49937 | 36018 ft | 433 kts | 229° |
| 2026-05-07 11:11 | -24.47416 | 160.45674 | 36015 ft | 434 kts | 229° |
| 2026-05-07 11:11 | -24.52032 | 160.41443 | 36014 ft | 435 kts | 229° |
| 2026-05-07 11:12 | -24.56669 | 160.37190 | 36013 ft | 432 kts | 229° |
| 2026-05-07 11:12 | -24.61290 | 160.32944 | 36038 ft | 434 kts | 229° |
| 2026-05-07 11:13 | -24.65922 | 160.28688 | 36037 ft | 431 kts | 229° |
| 2026-05-07 11:13 | -24.70517 | 160.24457 | 36034 ft | 433 kts | 229° |
| 2026-05-07 11:14 | -24.75136 | 160.20203 | 36036 ft | 434 kts | 230° |
| 2026-05-07 11:14 | -24.79739 | 160.15959 | 36035 ft | 431 kts | 230° |
| 2026-05-07 11:15 | -24.84342 | 160.11708 | 36033 ft | 432 kts | 229° |
| 2026-05-07 11:15 | -24.88928 | 160.07472 | 36029 ft | 430 kts | 230° |
| 2026-05-07 11:16 | -24.93520 | 160.03224 | 36032 ft | 431 kts | 230° |
| 2026-05-07 11:16 | -24.98088 | 159.98994 | 36031 ft | 432 kts | 230° |
| 2026-05-07 11:17 | -25.02674 | 159.94746 | 36031 ft | 430 kts | 230° |
| 2026-05-07 11:17 | -25.07285 | 159.90466 | 36030 ft | 432 kts | 230° |
| 2026-05-07 11:18 | -25.11878 | 159.86202 | 36022 ft | 432 kts | 230° |
| 2026-05-07 11:18 | -25.16453 | 159.81950 | 36024 ft | 431 kts | 230° |
| 2026-05-07 11:19 | -25.21043 | 159.77678 | 36020 ft | 431 kts | 230° |
| 2026-05-07 11:19 | -25.25620 | 159.73415 | 36021 ft | 430 kts | 230° |
| 2026-05-07 11:20 | -25.30161 | 159.69182 | 36020 ft | 429 kts | 230° |
| 2026-05-07 11:20 | -25.34728 | 159.64918 | 36019 ft | 429 kts | 230° |
| 2026-05-07 11:21 | -25.39310 | 159.60637 | 36019 ft | 430 kts | 230° |
| 2026-05-07 11:21 | -25.43883 | 159.56358 | 36015 ft | 430 kts | 230° |
| 2026-05-07 11:22 | -25.48451 | 159.52081 | 36020 ft | 432 kts | 230° |
| 2026-05-07 11:22 | -25.53016 | 159.47804 | 36014 ft | 428 kts | 231° |
| 2026-05-07 11:23 | -25.57559 | 159.43541 | 36016 ft | 429 kts | 230° |
| 2026-05-07 11:23 | -25.62125 | 159.39252 | 36014 ft | 431 kts | 230° |
| 2026-05-07 11:24 | -25.66665 | 159.34985 | 36012 ft | 428 kts | 231° |
| 2026-05-07 11:24 | -25.71212 | 159.30705 | 36040 ft | 429 kts | 231° |
| 2026-05-07 11:25 | -25.75763 | 159.26417 | 36039 ft | 430 kts | 231° |
| 2026-05-07 11:25 | -25.80347 | 159.22095 | 36035 ft | 428 kts | 231° |
| 2026-05-07 11:26 | -25.84854 | 159.17841 | 36037 ft | 429 kts | 231° |
| 2026-05-07 11:26 | -25.89379 | 159.13565 | 36034 ft | 426 kts | 231° |
| 2026-05-07 11:27 | -25.93920 | 159.09267 | 36033 ft | 429 kts | 232° |
| 2026-05-07 11:27 | -25.98521 | 159.05028 | 36029 ft | 437 kts | 227° |
| 2026-05-07 11:28 | -26.03549 | 159.01190 | 36036 ft | 438 kts | 226° |
| 2026-05-07 11:28 | -26.08592 | 158.97322 | 36029 ft | 440 kts | 226° |
| 2026-05-07 11:29 | -26.13561 | 158.93483 | 36023 ft | 436 kts | 226° |
| 2026-05-07 11:29 | -26.18548 | 158.89604 | 36017 ft | 434 kts | 227° |
| 2026-05-07 11:30 | -26.23510 | 158.85733 | 36017 ft | 437 kts | 226° |
| 2026-05-07 11:30 | -26.28466 | 158.81862 | 36026 ft | 437 kts | 226° |
| 2026-05-07 11:31 | -26.33455 | 158.77957 | 36019 ft | 437 kts | 227° |
| 2026-05-07 11:31 | -26.38430 | 158.74060 | 36014 ft | 434 kts | 227° |
| 2026-05-07 11:32 | -26.45857 | 158.68230 | 36011 ft | 435 kts | 227° |
| 2026-05-07 11:33 | -26.50801 | 158.64346 | 36008 ft | 433 kts | 227° |
| 2026-05-07 11:33 | -26.55765 | 158.60439 | 36010 ft | 434 kts | 227° |
| 2026-05-07 11:34 | -26.60692 | 158.56558 | 36009 ft | 434 kts | 227° |
| 2026-05-07 11:34 | -26.65618 | 158.52676 | 36004 ft | 431 kts | 227° |
| 2026-05-07 11:35 | -26.70541 | 158.48789 | 36008 ft | 433 kts | 227° |
| 2026-05-07 11:35 | -26.75470 | 158.44891 | 35997 ft | 436 kts | 227° |
| 2026-05-07 11:36 | -26.80398 | 158.40996 | 35993 ft | 431 kts | 227° |
| 2026-05-07 11:36 | -26.85366 | 158.37059 | 36005 ft | 435 kts | 227° |
| 2026-05-07 11:37 | -26.90269 | 158.33176 | 36027 ft | 432 kts | 228° |
| 2026-05-07 11:37 | -26.95183 | 158.29275 | 36026 ft | 431 kts | 227° |
| 2026-05-07 11:38 | -27.00074 | 158.25392 | 36017 ft | 428 kts | 228° |
| 2026-05-07 11:38 | -27.04965 | 158.21497 | 36019 ft | 431 kts | 227° |
| 2026-05-07 11:39 | -27.09847 | 158.17610 | 36019 ft | 432 kts | 228° |
| 2026-05-07 11:39 | -27.14778 | 158.13681 | 36008 ft | 430 kts | 228° |
| 2026-05-07 11:40 | -27.19688 | 158.09760 | 36008 ft | 433 kts | 228° |
| 2026-05-07 11:40 | -27.24614 | 158.05826 | 36009 ft | 434 kts | 228° |
| 2026-05-07 11:41 | -27.29503 | 158.01915 | 36011 ft | 435 kts | 228° |
| 2026-05-07 11:41 | -27.34446 | 157.97961 | 36008 ft | 430 kts | 228° |
| 2026-05-07 11:42 | -27.39314 | 157.94058 | 36004 ft | 430 kts | 228° |
| 2026-05-07 11:42 | -27.44218 | 157.90122 | 36005 ft | 432 kts | 228° |
| 2026-05-07 11:43 | -27.49142 | 157.86165 | 36005 ft | 435 kts | 228° |
| 2026-05-07 11:43 | -27.54040 | 157.82228 | 36002 ft | 432 kts | 229° |
| 2026-05-07 11:44 | -27.58989 | 157.78242 | 36002 ft | 432 kts | 228° |
| 2026-05-07 11:44 | -27.63893 | 157.74287 | 36001 ft | 437 kts | 228° |
| 2026-05-07 11:45 | -27.68832 | 157.70303 | 36002 ft | 435 kts | 228° |
| 2026-05-07 11:45 | -27.73730 | 157.66348 | 35999 ft | 433 kts | 228° |
| 2026-05-07 11:46 | -27.78799 | 157.62549 | 35998 ft | 440 kts | 226° |
| 2026-05-07 11:46 | -27.83923 | 157.58756 | 35997 ft | 438 kts | 226° |
| 2026-05-07 11:47 | -27.89006 | 157.54976 | 35997 ft | 439 kts | 226° |
| 2026-05-07 11:47 | -27.94118 | 157.51161 | 35992 ft | 441 kts | 226° |
| 2026-05-07 11:48 | -27.99218 | 157.47351 | 35989 ft | 439 kts | 226° |
| 2026-05-07 11:48 | -28.04318 | 157.43535 | 35984 ft | 440 kts | 226° |
| 2026-05-07 11:49 | -28.09409 | 157.39720 | 35985 ft | 439 kts | 226° |
| 2026-05-07 11:49 | -28.14523 | 157.35881 | 35976 ft | 440 kts | 226° |
| 2026-05-07 11:50 | -28.19617 | 157.32057 | 36001 ft | 437 kts | 227° |
| 2026-05-07 11:50 | -28.24729 | 157.28209 | 36004 ft | 437 kts | 227° |
| 2026-05-07 11:51 | -28.29813 | 157.24381 | 36005 ft | 438 kts | 227° |
| 2026-05-07 11:51 | -28.34912 | 157.20534 | 36014 ft | 439 kts | 227° |
| 2026-05-07 11:52 | -28.39985 | 157.16708 | 36015 ft | 437 kts | 227° |
| 2026-05-07 11:52 | -28.45050 | 157.12878 | 36010 ft | 438 kts | 227° |
| 2026-05-07 11:53 | -28.50143 | 157.09026 | 36012 ft | 437 kts | 227° |
| 2026-05-07 11:53 | -28.55217 | 157.05179 | 36014 ft | 439 kts | 227° |
| 2026-05-07 11:54 | -28.60278 | 157.01343 | 36017 ft | 436 kts | 227° |
| 2026-05-07 11:54 | -28.65323 | 156.97513 | 36015 ft | 436 kts | 227° |
| 2026-05-07 11:55 | -28.70393 | 156.93657 | 36021 ft | 437 kts | 227° |
| 2026-05-07 11:55 | -28.75474 | 156.89792 | 36016 ft | 434 kts | 227° |
| 2026-05-07 11:56 | -28.80524 | 156.85941 | 36017 ft | 439 kts | 227° |
| 2026-05-07 11:56 | -28.85577 | 156.82089 | 36015 ft | 436 kts | 227° |
| 2026-05-07 11:57 | -28.90659 | 156.78204 | 36014 ft | 439 kts | 227° |
| 2026-05-07 11:57 | -28.95736 | 156.74324 | 36010 ft | 435 kts | 227° |
| 2026-05-07 11:58 | -29.00800 | 156.70447 | 36010 ft | 437 kts | 227° |
| 2026-05-07 11:58 | -29.05830 | 156.66591 | 36007 ft | 435 kts | 227° |
| 2026-05-07 11:59 | -29.10910 | 156.62689 | 36004 ft | 437 kts | 227° |
| 2026-05-07 11:59 | -29.15910 | 156.58849 | 35997 ft | 437 kts | 228° |
| 2026-05-07 12:00 | -29.20992 | 156.54938 | 35997 ft | 437 kts | 227° |
| 2026-05-07 12:00 | -29.26008 | 156.51074 | 35999 ft | 438 kts | 228° |
| 2026-05-07 12:01 | -29.31076 | 156.47165 | 36002 ft | 438 kts | 227° |
| 2026-05-07 12:01 | -29.36106 | 156.43285 | 36001 ft | 435 kts | 228° |
| 2026-05-07 12:02 | -29.41158 | 156.39375 | 36001 ft | 438 kts | 228° |
| 2026-05-07 12:02 | -29.46188 | 156.35483 | 36002 ft | 435 kts | 228° |
| 2026-05-07 12:03 | -29.51197 | 156.31604 | 36034 ft | 434 kts | 229° |
| 2026-05-07 12:03 | -29.56209 | 156.27714 | 36035 ft | 432 kts | 229° |
| 2026-05-07 12:04 | -29.61229 | 156.23813 | 36042 ft | 434 kts | 228° |
| 2026-05-07 12:04 | -29.66221 | 156.19931 | 36042 ft | 431 kts | 229° |
| 2026-05-07 12:05 | -29.71167 | 156.16077 | 36044 ft | 435 kts | 228° |
| 2026-05-07 12:05 | -29.76167 | 156.12180 | 36048 ft | 432 kts | 228° |
| 2026-05-07 12:06 | -29.81152 | 156.08287 | 36051 ft | 432 kts | 228° |
| 2026-05-07 12:06 | -29.86142 | 156.04385 | 36051 ft | 434 kts | 228° |
| 2026-05-07 12:07 | -29.91128 | 156.00488 | 36053 ft | 430 kts | 229° |
| 2026-05-07 12:07 | -29.96075 | 155.96608 | 36055 ft | 435 kts | 229° |
| 2026-05-07 12:08 | -30.01084 | 155.92682 | 36054 ft | 430 kts | 229° |
| 2026-05-07 12:08 | -30.06046 | 155.88783 | 36057 ft | 432 kts | 229° |
| 2026-05-07 12:09 | -30.11002 | 155.84885 | 36051 ft | 433 kts | 228° |
| 2026-05-07 12:09 | -30.15985 | 155.80962 | 36050 ft | 432 kts | 228° |
| 2026-05-07 12:10 | -30.20945 | 155.77051 | 36046 ft | 431 kts | 228° |
| 2026-05-07 12:10 | -30.25886 | 155.73154 | 36040 ft | 428 kts | 229° |
| 2026-05-07 12:11 | -30.30808 | 155.69258 | 36044 ft | 432 kts | 228° |
| 2026-05-07 12:11 | -30.35746 | 155.65355 | 36043 ft | 429 kts | 229° |
| 2026-05-07 12:12 | -30.40694 | 155.61432 | 36042 ft | 431 kts | 229° |
| 2026-05-07 12:12 | -30.45666 | 155.57489 | 36038 ft | 430 kts | 229° |
| 2026-05-07 12:13 | -30.50599 | 155.53569 | 36039 ft | 432 kts | 228° |
| 2026-05-07 12:13 | -30.55519 | 155.49657 | 36040 ft | 432 kts | 228° |
| 2026-05-07 12:14 | -30.60466 | 155.45720 | 36035 ft | 428 kts | 229° |
| 2026-05-07 12:14 | -30.65422 | 155.41765 | 36035 ft | 430 kts | 228° |
| 2026-05-07 12:15 | -30.70331 | 155.37848 | 36035 ft | 430 kts | 228° |
| 2026-05-07 12:15 | -30.75242 | 155.33925 | 36056 ft | 426 kts | 229° |
| 2026-05-07 12:16 | -30.80146 | 155.29999 | 36063 ft | 427 kts | 229° |
| 2026-05-07 12:16 | -30.85044 | 155.26074 | 36064 ft | 427 kts | 229° |
| 2026-05-07 12:17 | -30.89917 | 155.22165 | 36065 ft | 425 kts | 229° |
| 2026-05-07 12:17 | -30.94828 | 155.18214 | 36062 ft | 429 kts | 228° |
| 2026-05-07 12:18 | -30.99714 | 155.14287 | 36062 ft | 427 kts | 229° |
| 2026-05-07 12:18 | -31.04585 | 155.10364 | 36050 ft | 427 kts | 228° |
| 2026-05-07 12:19 | -31.09491 | 155.06406 | 36039 ft | 429 kts | 228° |
| 2026-05-07 12:19 | -31.14401 | 155.02446 | 35903 ft | 424 kts | 228° |
| 2026-05-07 12:19 | -31.16812 | 155.00493 | 36044 ft | 428 kts | 228° |
| 2026-05-07 12:20 | -31.19290 | 154.98486 | 36049 ft | 430 kts | 228° |
| 2026-05-07 12:20 | -31.24189 | 154.94524 | 36050 ft | 428 kts | 228° |
| 2026-05-07 12:21 | -31.29100 | 154.90541 | 36055 ft | 430 kts | 228° |
| 2026-05-07 12:21 | -31.33983 | 154.86581 | 36073 ft | 428 kts | 228° |
| 2026-05-07 12:22 | -31.38854 | 154.82623 | 36034 ft | 426 kts | 228° |
| 2026-05-07 12:22 | -31.43734 | 154.78651 | 36063 ft | 426 kts | 228° |
| 2026-05-07 12:23 | -31.48589 | 154.74698 | 36056 ft | 426 kts | 228° |
| 2026-05-07 12:23 | -31.53442 | 154.70737 | 36038 ft | 425 kts | 228° |
| 2026-05-07 12:24 | -31.58318 | 154.66754 | 36001 ft | 424 kts | 228° |
| 2026-05-07 12:24 | -31.63166 | 154.62787 | 36071 ft | 426 kts | 228° |
| 2026-05-07 12:25 | -31.68023 | 154.58809 | 36058 ft | 426 kts | 227° |
| 2026-05-07 12:25 | -31.72897 | 154.54811 | 36025 ft | 428 kts | 227° |
| 2026-05-07 12:26 | -31.77758 | 154.50821 | 36051 ft | 428 kts | 227° |
| 2026-05-07 12:26 | -31.82623 | 154.46822 | 36061 ft | 427 kts | 227° |
| 2026-05-07 12:27 | -31.87483 | 154.42819 | 36076 ft | 429 kts | 228° |
| 2026-05-07 12:27 | -31.89941 | 154.40794 | 36254 ft | 427 kts | 228° |
| 2026-05-07 12:27 | -31.91571 | 154.39452 | 36194 ft | 427 kts | 227° |
| 2026-05-07 12:27 | -31.94788 | 154.36801 | 36073 ft | 421 kts | 227° |
| 2026-05-07 12:28 | -31.97191 | 154.34817 | 36056 ft | 424 kts | 227° |
| 2026-05-07 12:28 | -32.02036 | 154.30839 | 36071 ft | 425 kts | 227° |
| 2026-05-07 12:29 | -32.06868 | 154.26874 | 36090 ft | 423 kts | 228° |
| 2026-05-07 12:29 | -32.11735 | 154.22867 | 36090 ft | 424 kts | 228° |
| 2026-05-07 12:30 | -32.16543 | 154.18909 | 36082 ft | 420 kts | 227° |
| 2026-05-07 12:30 | -32.21337 | 154.14954 | 36092 ft | 420 kts | 227° |
| 2026-05-07 12:31 | -32.26151 | 154.10974 | 36068 ft | 422 kts | 227° |
| 2026-05-07 12:31 | -32.30945 | 154.07008 | 36064 ft | 424 kts | 227° |
| 2026-05-07 12:32 | -32.35765 | 154.03018 | 36078 ft | 423 kts | 226° |
| 2026-05-07 12:32 | -32.38177 | 154.01019 | 35922 ft | 421 kts | 227° |
| 2026-05-07 12:32 | -32.40593 | 153.99013 | 36070 ft | 426 kts | 226° |
| 2026-05-07 12:33 | -32.47846 | 153.92989 | 36041 ft | 423 kts | 226° |
| 2026-05-07 12:33 | -32.52652 | 153.88991 | 36062 ft | 421 kts | 226° |
| 2026-05-07 12:34 | -32.57476 | 153.84969 | 36050 ft | 422 kts | 225° |
| 2026-05-07 12:34 | -32.62270 | 153.80971 | 36050 ft | 422 kts | 226° |
| 2026-05-07 12:35 | -32.67116 | 153.76920 | 36048 ft | 423 kts | 225° |
| 2026-05-07 12:35 | -32.71958 | 153.72868 | 36051 ft | 426 kts | 225° |
| 2026-05-07 12:36 | -32.76759 | 153.68849 | 36041 ft | 422 kts | 225° |
| 2026-05-07 12:36 | -32.81565 | 153.64816 | 36041 ft | 424 kts | 225° |
| 2026-05-07 12:37 | -32.86403 | 153.60753 | 36020 ft | 423 kts | 225° |
| 2026-05-07 12:37 | -32.91234 | 153.56689 | 36034 ft | 423 kts | 225° |
| 2026-05-07 12:38 | -32.96028 | 153.52652 | 36038 ft | 422 kts | 224° |
| 2026-05-07 12:38 | -33.00888 | 153.48550 | 36033 ft | 426 kts | 224° |
| 2026-05-07 12:39 | -33.05724 | 153.44467 | 36041 ft | 426 kts | 225° |
| 2026-05-07 12:39 | -33.10560 | 153.40376 | 36041 ft | 423 kts | 224° |
| 2026-05-07 12:40 | -33.15389 | 153.36287 | 36042 ft | 425 kts | 224° |
| 2026-05-07 12:40 | -33.20243 | 153.32170 | 36049 ft | 424 kts | 224° |
| 2026-05-07 12:41 | -33.25060 | 153.28078 | 36069 ft | 426 kts | 224° |
| 2026-05-07 12:41 | -33.29868 | 153.23991 | 36061 ft | 423 kts | 224° |
| 2026-05-07 12:42 | -33.34727 | 153.19850 | 36061 ft | 427 kts | 223° |
| 2026-05-07 12:42 | -33.39558 | 153.15732 | 36067 ft | 425 kts | 224° |
| 2026-05-07 12:43 | -33.43578 | 153.12299 | 36051 ft | 426 kts | 223° |
| 2026-05-07 12:43 | -33.49177 | 153.07512 | 36053 ft | 426 kts | 223° |
| 2026-05-07 12:44 | -33.53983 | 153.03397 | 36052 ft | 422 kts | 223° |
| 2026-05-07 12:44 | -33.57991 | 152.99957 | 36054 ft | 426 kts | 222° |
| 2026-05-07 12:45 | -33.63593 | 152.95149 | 36037 ft | 425 kts | 223° |
| 2026-05-07 12:45 | -33.65199 | 152.93770 | 35927 ft | 420 kts | 223° |
| 2026-05-07 12:45 | -33.68380 | 152.91034 | 34993 ft | 424 kts | 221° |
| 2026-05-07 12:46 | -33.69957 | 152.89673 | 34470 ft | 429 kts | 220° |
| 2026-05-07 12:46 | -33.72387 | 152.87578 | 33653 ft | 435 kts | 219° |
| 2026-05-07 12:46 | -33.75698 | 152.84723 | 32278 ft | 439 kts | 219° |
| 2026-05-07 12:46 | -33.77352 | 152.83296 | 31648 ft | 436 kts | 218° |
| 2026-05-07 12:47 | -33.79771 | 152.81210 | 30729 ft | 425 kts | 218° |
| 2026-05-07 12:47 | -33.82879 | 152.78529 | 30106 ft | 398 kts | 217° |
| 2026-05-07 12:47 | -33.84354 | 152.77257 | 29782 ft | 386 kts | 218° |
| 2026-05-07 12:47 | -33.87206 | 152.74789 | 29259 ft | 377 kts | 217° |
| 2026-05-07 12:48 | -33.89390 | 152.72896 | 28673 ft | 397 kts | 217° |
| 2026-05-07 12:48 | -33.90888 | 152.71597 | 28245 ft | 396 kts | 217° |
| 2026-05-07 12:48 | -33.93124 | 152.69659 | 27671 ft | 391 kts | 217° |
| 2026-05-07 12:48 | -33.95285 | 152.67787 | 27148 ft | 385 kts | 217° |
| 2026-05-07 12:49 | -33.97444 | 152.65913 | 26609 ft | 379 kts | 217° |
| 2026-05-07 12:49 | -33.99583 | 152.64056 | 26082 ft | 373 kts | 217° |
| 2026-05-07 12:49 | -34.01656 | 152.62256 | 25575 ft | 368 kts | 217° |
| 2026-05-07 12:49 | -34.04169 | 152.59551 | 24847 ft | 361 kts | 228° |
| 2026-05-07 12:50 | -34.05597 | 152.57071 | 24322 ft | 359 kts | 238° |
| 2026-05-07 12:50 | -34.06303 | 152.55263 | 23981 ft | 360 kts | 244° |
| 2026-05-07 12:50 | -34.06987 | 152.52321 | 23483 ft | 374 kts | 253° |
| 2026-05-07 12:50 | -34.07181 | 152.49144 | 22838 ft | 382 kts | 263° |
| 2026-05-07 12:51 | -34.07021 | 152.45967 | 22047 ft | 387 kts | 266° |
| 2026-05-07 12:51 | -34.06780 | 152.42706 | 21333 ft | 387 kts | 267° |
| 2026-05-07 12:51 | -34.06522 | 152.39549 | 20874 ft | 381 kts | 267° |
| 2026-05-07 12:51 | -34.06250 | 152.36368 | 20281 ft | 378 kts | 267° |
| 2026-05-07 12:52 | -34.05882 | 152.32211 | 19470 ft | 375 kts | 267° |
| 2026-05-07 12:52 | -34.05595 | 152.29076 | 18899 ft | 372 kts | 267° |
| 2026-05-07 12:52 | -34.05405 | 152.27011 | 18480 ft | 372 kts | 267° |
| 2026-05-07 12:52 | -34.05116 | 152.23910 | 17924 ft | 369 kts | 267° |
| 2026-05-07 12:53 | -34.04828 | 152.20862 | 17359 ft | 366 kts | 268° |
| 2026-05-07 12:53 | -34.04539 | 152.17825 | 16730 ft | 366 kts | 268° |
| 2026-05-07 12:53 | -34.04245 | 152.14755 | 16138 ft | 364 kts | 268° |
| 2026-05-07 12:53 | -34.03958 | 152.11768 | 15556 ft | 363 kts | 268° |
| 2026-05-07 12:54 | -34.03666 | 152.08743 | 14932 ft | 362 kts | 268° |
| 2026-05-07 12:54 | -34.03375 | 152.05759 | 14628 ft | 355 kts | 268° |
| 2026-05-07 12:54 | -34.03081 | 152.02846 | 14561 ft | 344 kts | 268° |
| 2026-05-07 12:54 | -34.02794 | 152.00044 | 14427 ft | 326 kts | 267° |
| 2026-05-07 12:55 | -34.02526 | 151.97404 | 14295 ft | 310 kts | 267° |
| 2026-05-07 12:55 | -34.02274 | 151.94905 | 14205 ft | 294 kts | 266° |
| 2026-05-07 12:55 | -34.01958 | 151.91779 | 13971 ft | 273 kts | 266° |
| 2026-05-07 12:55 | -34.01808 | 151.90271 | 13828 ft | 269 kts | 265° |
| 2026-05-07 12:56 | -34.01590 | 151.88055 | 13461 ft | 268 kts | 266° |
| 2026-05-07 12:56 | -34.01367 | 151.85828 | 13081 ft | 268 kts | 266° |
| 2026-05-07 12:56 | -34.01068 | 151.82873 | 12632 ft | 265 kts | 268° |
| 2026-05-07 12:56 | -34.00918 | 151.81407 | 12413 ft | 264 kts | 268° |
| 2026-05-07 12:57 | -34.00699 | 151.79199 | 12032 ft | 263 kts | 265° |
| 2026-05-07 12:57 | -34.00899 | 151.77089 | 11659 ft | 249 kts | 247° |
| 2026-05-07 12:57 | -34.01437 | 151.75136 | 11311 ft | 246 kts | 245° |
| 2026-05-07 12:57 | -34.02023 | 151.73202 | 10962 ft | 246 kts | 245° |
| 2026-05-07 12:58 | -34.02615 | 151.71280 | 10595 ft | 245 kts | 245° |
| 2026-05-07 12:58 | -34.03206 | 151.69365 | 10243 ft | 245 kts | 246° |
| 2026-05-07 12:58 | -34.04000 | 151.66786 | 9767 ft | 244 kts | 246° |
| 2026-05-07 12:58 | -34.04393 | 151.65509 | 9532 ft | 244 kts | 246° |
| 2026-05-07 12:59 | -34.04981 | 151.63596 | 9183 ft | 243 kts | 246° |
| 2026-05-07 12:59 | -34.05759 | 151.61060 | 8849 ft | 236 kts | 246° |
| 2026-05-07 12:59 | -34.06133 | 151.59839 | 8844 ft | 227 kts | 246° |
| 2026-05-07 12:59 | -34.06670 | 151.58089 | 8703 ft | 219 kts | 246° |
| 2026-05-07 13:00 | -34.07197 | 151.56374 | 8365 ft | 220 kts | 246° |
| 2026-05-07 13:00 | -34.07731 | 151.54633 | 8079 ft | 218 kts | 245° |
| 2026-05-07 13:00 | -34.08253 | 151.52928 | 7779 ft | 217 kts | 245° |
| 2026-05-07 13:00 | -34.08775 | 151.51224 | 7452 ft | 217 kts | 246° |
| 2026-05-07 13:01 | -34.09304 | 151.49495 | 7149 ft | 216 kts | 245° |
| 2026-05-07 13:01 | -34.09989 | 151.47258 | 6764 ft | 215 kts | 245° |
| 2026-05-07 13:01 | -34.10345 | 151.46091 | 6558 ft | 215 kts | 245° |
| 2026-05-07 13:01 | -34.10874 | 151.44359 | 6301 ft | 212 kts | 245° |
| 2026-05-07 13:02 | -34.11523 | 151.42226 | 6251 ft | 194 kts | 245° |
| 2026-05-07 13:02 | -34.11972 | 151.40750 | 6230 ft | 180 kts | 245° |
| 2026-05-07 13:02 | -34.12252 | 151.39835 | 6159 ft | 174 kts | 244° |
| 2026-05-07 13:02 | -34.12675 | 151.38455 | 5842 ft | 174 kts | 244° |
| 2026-05-07 13:03 | -34.13099 | 151.37065 | 5564 ft | 172 kts | 244° |
| 2026-05-07 13:03 | -34.13518 | 151.35689 | 5283 ft | 171 kts | 245° |
| 2026-05-07 13:03 | -34.13928 | 151.34341 | 4994 ft | 172 kts | 245° |
| 2026-05-07 13:03 | -34.14341 | 151.32983 | 4716 ft | 171 kts | 245° |
| 2026-05-07 13:04 | -34.14547 | 151.31589 | 4544 ft | 175 kts | 270° |
| 2026-05-07 13:04 | -34.14493 | 151.30093 | 4440 ft | 173 kts | 249° |
| 2026-05-07 13:04 | -34.15084 | 151.28863 | 4325 ft | 169 kts | 233° |
| 2026-05-07 13:04 | -34.15637 | 151.27618 | 4197 ft | 166 kts | 241° |
| 2026-05-07 13:05 | -34.16105 | 151.26399 | 4112 ft | 154 kts | 241° |
| 2026-05-07 13:05 | -34.16394 | 151.25176 | 3960 ft | 155 kts | 263° |
| 2026-05-07 13:05 | -34.16067 | 151.23901 | 3761 ft | 169 kts | 300° |
| 2026-05-07 13:05 | -34.15109 | 151.23003 | 3550 ft | 182 kts | 328° |
| 2026-05-07 13:06 | -34.13870 | 151.22546 | 3338 ft | 187 kts | 340° |
| 2026-05-07 13:06 | -34.12600 | 151.22224 | 3118 ft | 185 kts | 341° |
| 2026-05-07 13:06 | -34.11346 | 151.21913 | 2902 ft | 182 kts | 340° |
| 2026-05-07 13:06 | -34.10108 | 151.21596 | 2683 ft | 178 kts | 340° |
| 2026-05-07 13:07 | -34.08894 | 151.21281 | 2469 ft | 180 kts | 339° |
| 2026-05-07 13:07 | -34.07656 | 151.20961 | 2233 ft | 176 kts | 339° |
| 2026-05-07 13:07 | -34.06592 | 151.20691 | 2034 ft | 163 kts | 338° |
| 2026-05-07 13:07 | -34.05497 | 151.20404 | 1839 ft | 156 kts | 338° |
| 2026-05-07 13:08 | -34.04425 | 151.20123 | 1635 ft | 157 kts | 338° |
| 2026-05-07 13:08 | -34.03379 | 151.19856 | 1425 ft | 153 kts | 338° |
| 2026-05-07 13:08 | -34.02325 | 151.19583 | 1237 ft | 153 kts | 339° |
| 2026-05-07 13:08 | -34.01295 | 151.19318 | 1038 ft | 151 kts | 339° |
| 2026-05-07 13:09 | -34.00261 | 151.19051 | 828 ft | 150 kts | 340° |
| 2026-05-07 13:09 | -33.99241 | 151.18787 | 624 ft | 148 kts | 340° |
| 2026-05-07 13:09 | -33.98240 | 151.18529 | 423 ft | 145 kts | 341° |
| 2026-05-07 13:09 | -33.97257 | 151.18277 | 230 ft | 144 kts | 342° |
| 2026-05-07 13:10 | -33.96277 | 151.18041 | 50 ft | 141 kts | 341° |
| 2026-05-07 13:10 | -33.95422 | 151.17799 | 22 ft | 100 kts | 347° |
| 2026-05-07 13:10 | -33.94871 | 151.17659 | 27 ft | 63 kts | 347° |
| 2026-05-07 13:10 | -33.94616 | 151.17586 | 30 ft | 27 kts | 341° |
| 2026-05-07 13:11 | -33.94452 | 151.17482 | 28 ft | 25 kts | 325° |
| 2026-05-07 13:11 | -33.94367 | 151.17398 | 28 ft | 9 kts | 318° |
| 2026-05-07 13:11 | -33.94352 | 151.17381 | 28 ft | 0 kts | 317° |
| 2026-05-07 13:12 | -33.94343 | 151.17372 | 28 ft | 4 kts | 317° |
| 2026-05-07 13:12 | -33.94307 | 151.17331 | 28 ft | 6 kts | 317° |
| 2026-05-07 13:12 | -33.94294 | 151.17319 | 28 ft | 3 kts | 324° |
| 2026-05-07 13:12 | -33.94191 | 151.17279 | 27 ft | 19 kts | 347° |
| 2026-05-07 13:13 | -33.94065 | 151.17247 | 26 ft | 17 kts | 347° |
| 2026-05-07 13:13 | -33.93948 | 151.17215 | 25 ft | 16 kts | 347° |
| 2026-05-07 13:13 | -33.93844 | 151.17189 | 24 ft | 14 kts | 348° |
| 2026-05-07 13:13 | -33.93751 | 151.17166 | 25 ft | 12 kts | 348° |
| 2026-05-07 13:14 | -33.93671 | 151.17145 | 26 ft | 10 kts | 347° |
| 2026-05-07 13:14 | -33.93604 | 151.17129 | 27 ft | 8 kts | 349° |
| 2026-05-07 13:14 | -33.93554 | 151.17116 | 28 ft | 6 kts | 342° |
| 2026-05-07 13:14 | -33.93508 | 151.17058 | 30 ft | 13 kts | 277° |
| 2026-05-07 13:15 | -33.93513 | 151.16960 | 32 ft | 3 kts | 279° |
| 2026-05-07 13:15 | -33.93510 | 151.16951 | 33 ft | 3 kts | 301° |
| 2026-05-07 13:15 | -33.93475 | 151.16913 | 33 ft | 6 kts | 301° |
| 2026-05-07 13:15 | -33.93471 | 151.16849 | 35 ft | 2 kts | 259° |
| 2026-05-07 13:16 | -33.93473 | 151.16835 | 35 ft | 3 kts | 259° |
| 2026-05-07 13:16 | -33.93478 | 151.16805 | 34 ft | 2 kts | 258° |
| 2026-05-07 13:16 | -33.93480 | 151.16792 | 34 ft | 0 kts | 258° |